Main page
METAR-TAF:

METAR-TAF

Airports :

Kaunas Airport

Kaunas, Lithuania

latitude: 54-54N, longitude: 023-55-12E, elevation: 77 m

Current weather observation

The report was made 16 minutes ago, at 03:20 UTC
Wind 7 kt from the West
Temperature 9°C
Humidity 93%
Pressure 1018 hPa
Visibility: 0650 m
fog

METAR: EYKA 260320Z 26007KT 0650 R26/1700N FG VV001 09/08 Q1018

Time: 06:36 (03:36 UTC)

Forecast

The report was made 18 minutes ago, at 03:18 UTC
Forecast valid from 26 at 03 UTC to 26 at 24 UTC
Wind 5 kt from variable directions
Visibility: 0600 m
at a height of 200 ft
fog
Temporary
from 26 at 03 UTC to 26 at 06 UTC
Visibility: 1500 m
Scattered clouds at a height of 500 ft
Shallow fog, mist
Becoming
from 26 at 06 UTC to 26 at 08 UTC
Visibility: 9000 m

TAF: EYKA 260318Z 2603/2624 VRB05KT 0600 FG VV002 TEMPO 2603/2606 1500 MIFG BR SCT005 BECMG 2606/2608 9000 NSW NSC

Weather observations and forecasts of more than 4000 airports (METAR and TAF reports).

The available stations are represented by yellow and red dots on the map.

Hover mouse over dot to see the name of the station.

Then click to see weather observations and forecasts.

To change the map : click on the green buttons with a black cross to zoom in, on the green button with a dash to zoom out, or on the green arrows for adjacent maps.


METAR-TAF: